Terminal Aerodrome Forecast
Issued by NWS Portland, OR

Home | Current Version | Previous Version | Text Only | Print | Product List | Glossary On
Versions: 1 2 3 4 5 6 7 8 9 10 11 12 13 14 15 16
000
FTUS46 KPQR 041141
TAFEUG
TAF
KEUG 041141Z 0412/0512 17008KT 6SM -RA BKN025 BKN040
     FM041400 19009KT 1 1/2SM -RA BR OVC015
     FM041700 27009KT 4SM -SHRA BR SCT015 SCT025 BKN040
     FM042300 31006KT P6SM SCT025 BKN040
     FM050500 19005KT P6SM SCT025 BKN040=

USA.gov is the U.S. government's official web portal to all federal, state and local government web resources and services.